»·PEaware :: N448RA KBFL-KVBG

N448RA :: KBFL-KVBG

FLIGHT INFORMATION

Flight Status: Arrived
Operator: Privately registered:
United States
More flights under this callsign
Pilot: Scott M. (16181)
Aircraft: Unknown
(KODI)
More flights by this aircraft type
Origin: KBFL Meadows
United States
Destination: KVBG Vandenberg AFB
United States
More flights between these airports :: More routes between these airports
Route:
File this flight plan on PilotEdge
Remarks:
Altitude:
(Current/Filed)
8,500ft
Speed:
(Current/Filed)
125kts
Departed: 25-Oct-17 06:50 PM
Arrived: 25-Oct-17 07:36 PM
Distance/Time
Traveled:
85nm/0:45
Distance/Time
To Go:
Arrived

Flight Plot

Page will automatically refresh every two minutes.

Flight plan parsing failed; only flown route is shown


Map Options




Map Legend


Flown Route
Filed Route
Departure Airport
Arrival Airport
Navaid (VOR, NDB)
Fix

Horizontal Profiles

Position Reports

Time Latitude Longitude Heading Altitude Ground
Speed
25-Oct-17 18:47 35.429380 -119.046087 226 511ft 0kts
25-Oct-17 18:48 35.429381 -119.046086 226 511ft 0kts
25-Oct-17 18:49 35.429381 -119.046086 226 511ft 0kts
25-Oct-17 18:50 35.429381 -119.046086 226 511ft 0kts
25-Oct-17 18:51 35.428767 -119.046870 222 511ft 9kts
25-Oct-17 18:52 35.425844 -119.044743 204 510ft 0kts
25-Oct-17 18:53 35.425813 -119.044760 203 510ft 0kts
25-Oct-17 18:54 35.425813 -119.044760 203 510ft 0kts
25-Oct-17 18:55 35.426230 -119.046992 317 511ft 43kts
25-Oct-17 18:56 35.444705 -119.070710 310 1199ft 135kts
25-Oct-17 18:57 35.430309 -119.103483 210 1875ft 146kts
25-Oct-17 18:58 35.404041 -119.127328 227 2630ft 139kts
25-Oct-17 18:59 35.382934 -119.159922 236 3459ft 147kts
25-Oct-17 19:00 35.364067 -119.197234 240 4296ft 149kts
25-Oct-17 19:01 35.346459 -119.235289 242 5140ft 147kts
25-Oct-17 19:02 35.329076 -119.274125 242 6003ft 146kts
25-Oct-17 19:03 35.311861 -119.312667 243 6864ft 145kts
25-Oct-17 19:04 35.295038 -119.350545 243 7720ft 144kts
25-Oct-17 19:05 35.277967 -119.388901 242 8543ft 148kts
25-Oct-17 19:06 35.260171 -119.429075 242 8552ft 152kts
25-Oct-17 19:07 35.243172 -119.467257 243 8554ft 149kts
25-Oct-17 19:08 35.227149 -119.503215 243 8555ft 149kts
25-Oct-17 19:09 35.211559 -119.538356 244 8556ft 148kts
25-Oct-17 19:10 35.194921 -119.575655 243 8554ft 148kts
25-Oct-17 19:11 35.178305 -119.612781 242 8556ft 148kts
25-Oct-17 19:12 35.161664 -119.649942 242 8555ft 149kts
25-Oct-17 19:13 35.146852 -119.683059 242 8555ft 148kts
25-Oct-17 19:14 35.130304 -119.720152 242 8555ft 148kts
25-Oct-17 19:15 35.113822 -119.756781 242 8554ft 148kts
25-Oct-17 19:16 35.097713 -119.792710 242 8554ft 148kts
25-Oct-17 19:17 35.081068 -119.829745 243 8554ft 148kts
25-Oct-17 19:18 35.064471 -119.866571 243 8555ft 148kts
25-Oct-17 19:19 35.046995 -119.905443 242 8554ft 148kts
25-Oct-17 19:20 35.029731 -119.943741 242 8556ft 148kts
25-Oct-17 19:21 35.011731 -119.983654 241 8554ft 149kts
25-Oct-17 19:22 34.994144 -120.022539 242 8512ft 151kts
25-Oct-17 19:23 34.975691 -120.063265 243 7868ft 151kts
25-Oct-17 19:24 34.957229 -120.103949 243 7130ft 152kts
25-Oct-17 19:25 34.939759 -120.142496 242 6268ft 142kts
25-Oct-17 19:26 34.922527 -120.180409 241 5392ft 138kts
25-Oct-17 19:27 34.905923 -120.216974 242 4576ft 134kts
25-Oct-17 19:28 34.893262 -120.244662 243 4526ft 84kts
25-Oct-17 19:29 34.882201 -120.269204 243 4385ft 108kts
25-Oct-17 19:30 34.865739 -120.305396 241 3988ft 152kts
25-Oct-17 19:31 34.848238 -120.343715 241 3375ft 133kts
25-Oct-17 19:32 34.832079 -120.378463 237 2790ft 120kts
25-Oct-17 19:33 34.812978 -120.405213 224 2590ft 111kts
25-Oct-17 19:34 34.790526 -120.428409 213 2530ft 110kts
25-Oct-17 19:35 34.766121 -120.447597 215 2513ft 111kts
25-Oct-17 19:36 34.744564 -120.471572 225 2539ft 112kts
25-Oct-17 19:37 34.725049 -120.498579 229 2408ft 106kts
25-Oct-17 19:38 34.707345 -120.525828 244 2153ft 110kts
25-Oct-17 19:39 34.711782 -120.555189 322 1001ft 90kts
25-Oct-17 19:40 34.726927 -120.572283 315 374ft 53kts
25-Oct-17 19:41 34.732235 -120.572061 71 374ft 20kts
25-Oct-17 19:42 34.732606 -120.570696 69 374ft 0kts

Navigation Log

Ident Type
Flight plan parsing failed, navigation log unavailable